Time;durP1;ratioP1;P1;durP2;ratioP2;P2;SDS_P1;SDS_P2;PMS_P1;PMS_P2;Temp;Humidity;BMP_temperature;BMP_pressure;BME280_temperature;BME280_humidity;BME280_pressure;Samples;Min_cycle;Max_cycle;Signal;HPM_P1;HPM_P2
2022/12/14 00:01:52;;;;;;;14.03;12.17;;;1.50;40.90;;;;;;20828;6823;121923;-83
2022/12/14 00:04:17;;;;;;;16.95;15.20;;;1.30;41.30;;;;;;20624;6823;306112;-83
2022/12/14 00:06:43;;;;;;;19.67;17.67;;;1.30;42.30;;;;;;20593;6823;307086;-82
2022/12/14 00:09:09;;;;;;;14.27;12.77;;;1.60;43.30;;;;;;20835;6823;118405;-83
2022/12/14 00:11:36;;;;;;;14.57;13.07;;;1.60;43.10;;;;;;20829;6823;117480;-82
2022/12/14 00:14:01;;;;;;;19.33;17.33;;;1.30;43.10;;;;;;20625;6823;302467;-82
2022/12/14 00:16:27;;;;;;;16.77;14.33;;;1.40;44.00;;;;;;20830;6823;117294;-82
2022/12/14 00:18:52;;;;;;;14.80;13.20;;;1.40;43.90;;;;;;20800;6823;119302;-82
2022/12/14 00:21:18;;;;;;;20.25;18.23;;;1.20;44.00;;;;;;20617;6823;309375;-82
2022/12/14 00:23:43;;;;;;;15.80;14.20;;;1.30;44.80;;;;;;20823;6823;118207;-82
2022/12/14 00:26:09;;;;;;;19.42;17.40;;;1.30;44.40;;;;;;20623;6823;307501;-82
2022/12/14 00:28:35;;;;;;;20.33;18.33;;;1.40;45.00;;;;;;20598;6823;302128;-81
2022/12/14 00:31:00;;;;;;;20.35;18.35;;;1.60;45.20;;;;;;20616;6823;277575;-83
2022/12/14 00:33:26;;;;;;;17.63;15.57;;;1.90;44.90;;;;;;20838;6823;117510;-81
2022/12/14 00:35:51;;;;;;;19.70;17.63;;;1.80;44.50;;;;;;20617;6823;306970;-82
2022/12/14 00:38:17;;;;;;;16.97;15.17;;;1.70;44.50;;;;;;20834;6823;117770;-83
2022/12/14 00:40:43;;;;;;;16.15;14.52;;;1.60;44.50;;;;;;20816;6821;117358;-85
2022/12/14 00:43:08;;;;;;;20.43;18.17;;;1.40;44.70;;;;;;20628;6822;307475;-83
2022/12/14 00:45:34;;;;;;;21.40;19.20;;;1.40;45.10;;;;;;20629;6822;306982;-83
2022/12/14 00:48:01;;;;;;;17.73;15.80;;;1.60;44.80;;;;;;20833;6822;117421;-86
2022/12/14 00:50:25;;;;;;;22.03;19.83;;;1.50;44.40;;;;;;20623;6822;308566;-82
2022/12/14 00:52:50;;;;;;;18.17;15.83;;;1.50;45.10;;;;;;20817;6822;117272;-83
2022/12/14 00:55:16;;;;;;;20.62;18.50;;;1.40;45.00;;;;;;20625;6822;308015;-83
2022/12/14 00:57:42;;;;;;;21.30;19.17;;;1.50;45.70;;;;;;20626;6822;306465;-82
2022/12/14 01:00:07;;;;;;;21.08;19.08;;;1.70;45.70;;;;;;20632;6823;278069;-83
2022/12/14 01:02:33;;;;;;;16.80;15.03;;;1.90;45.40;;;;;;20834;6823;117852;-82
2022/12/14 01:04:59;;;;;;;20.98;18.75;;;1.80;45.10;;;;;;20645;6823;277553;-85
2022/12/14 01:07:24;;;;;;;19.20;15.35;;;1.70;44.90;;;;;;20927;6823;67251;-85
2022/12/14 01:09:50;;;;;;;18.13;14.80;;;1.70;44.80;;;;;;20838;6823;117293;-85
2022/12/14 01:12:15;;;;;;;18.15;14.27;;;1.40;44.90;;;;;;20829;6823;119862;-81
2022/12/14 01:14:41;;;;;;;21.05;18.90;;;1.10;45.10;;;;;;20598;6823;277737;-81
2022/12/14 01:17:06;;;;;;;17.37;14.90;;;1.20;45.70;;;;;;20836;6823;116842;-82
2022/12/14 01:19:33;;;;;;;20.10;18.10;;;1.30;45.80;;;;;;20641;6823;324852;-86
2022/12/14 01:22:00;;;;;;;16.80;15.00;;;1.30;45.50;;;;;;20838;6823;117231;-82
2022/12/14 01:24:25;;;;;;;19.07;17.27;;;1.30;45.10;;;;;;20627;6823;294419;-84
2022/12/14 01:26:51;;;;;;;21.02;18.92;;;1.40;45.40;;;;;;20608;6823;340197;-85
2022/12/14 01:29:16;;;;;;;17.83;14.68;;;1.60;45.00;;;;;;20841;6823;116641;-82
2022/12/14 01:31:42;;;;;;;16.47;14.70;;;1.60;44.90;;;;;;20843;6823;117179;-83
2022/12/14 01:34:08;;;;;;;17.55;14.48;;;1.10;45.30;;;;;;20839;6823;117357;-85
2022/12/14 01:36:34;;;;;;;15.63;13.33;;;1.10;45.30;;;;;;20824;6823;119457;-82
2022/12/14 01:38:59;;;;;;;18.50;14.00;;;1.00;45.50;;;;;;20833;6823;117484;-82
2022/12/14 01:41:31;;;;;;;20.70;18.50;;;0.90;45.70;;;;;;20615;6823;307051;-82
2022/12/14 01:44:00;;;;;;;19.97;17.97;;;1.00;46.30;;;;;;20611;6823;337004;-83
2022/12/14 01:46:32;;;;;;;20.17;17.98;;;1.40;46.00;;;;;;20618;6823;307993;-81
2022/12/14 01:49:18;;;;;;;19.07;17.07;;;1.70;45.50;;;;;;20600;6823;339135;-82
2022/12/14 01:51:43;;;;;;;17.87;14.90;;;1.90;44.60;;;;;;20846;6821;117227;-81
2022/12/14 01:54:09;;;;;;;16.40;13.43;;;1.80;44.30;;;;;;20832;6822;117196;-82
2022/12/14 01:56:35;;;;;;;19.27;17.27;;;1.60;44.50;;;;;;20608;6822;309562;-81
2022/12/14 01:59:00;;;;;;;17.40;14.70;;;1.60;44.10;;;;;;20821;6822;118166;-81
2022/12/14 02:01:26;;;;;;;21.07;18.50;;;1.50;43.80;;;;;;20604;6822;279655;-83
2022/12/14 02:03:53;;;;;;;15.70;13.97;;;1.50;44.00;;;;;;20835;6822;117667;-83
2022/12/14 02:06:23;;;;;;;20.17;18.23;;;1.50;44.10;;;;;;20650;6822;337392;-81
2022/12/14 02:08:50;;;;;;;21.23;19.10;;;1.60;44.90;;;;;;20607;6822;307449;-82
2022/12/14 02:11:19;;;;;;;18.43;15.87;;;1.80;44.70;;;;;;20814;6823;120065;-81
2022/12/14 02:13:46;;;;;;;20.73;14.97;;;1.70;44.50;;;;;;20806;6823;116525;-81
2022/12/14 02:16:12;;;;;;;22.80;19.58;;;1.50;44.80;;;;;;20631;6823;276715;-83
2022/12/14 02:18:37;;;;;;;20.07;15.77;;;1.50;44.90;;;;;;20798;6823;127303;-84
2022/12/14 02:21:35;;;;;;;19.60;14.73;;;1.50;44.70;;;;;;20795;6823;117051;-82
2022/12/14 02:24:28;;;;;;;23.13;15.03;;;1.30;44.90;;;;;;20869;6823;117216;-83
2022/12/14 02:27:07;;;;;;;26.20;20.73;;;1.00;45.10;;;;;;20574;6823;281009;-81
2022/12/14 02:29:59;;;;;;;22.58;20.02;;;1.10;45.60;;;;;;20593;6823;308991;-82
2022/12/14 02:32:57;;;;;;;19.53;15.43;;;1.50;45.50;;;;;;20824;6823;118492;-81
2022/12/14 02:35:45;;;;;;;16.43;14.43;;;1.30;45.10;;;;;;20807;6823;117313;-81
2022/12/14 02:38:35;;;;;;;22.23;19.83;;;1.10;46.00;;;;;;20614;6823;307068;-80
2022/12/14 02:41:06;;;;;;;19.03;15.70;;;1.10;46.00;;;;;;20827;6823;117438;-81
2022/12/14 02:43:39;;;;;;;18.40;14.83;;;1.10;45.80;;;;;;20825;6823;120605;-80
2022/12/14 02:46:08;;;;;;;20.00;15.60;;;0.70;46.30;;;;;;20833;6823;117782;-80
2022/12/14 02:48:40;;;;;;;21.83;19.37;;;0.70;46.20;;;;;;20583;6823;291647;-82
2022/12/14 02:51:05;;;;;;;20.13;15.97;;;0.80;47.10;;;;;;20593;6823;117961;-82
2022/12/14 02:53:37;;;;;;;24.10;20.50;;;0.90;46.90;;;;;;20611;6823;291636;-81
2022/12/14 02:56:04;;;;;;;18.67;16.20;;;1.10;46.60;;;;;;20824;6823;117741;-83
2022/12/14 02:58:39;;;;;;;17.67;14.47;;;1.10;46.60;;;;;;20806;6823;117774;-81
2022/12/14 03:01:04;;;;;;;18.40;14.77;;;0.90;46.60;;;;;;20820;6823;118225;-81
2022/12/14 03:03:30;;;;;;;23.97;19.87;;;0.80;46.80;;;;;;20603;6821;307006;-83
2022/12/14 03:05:56;;;;;;;19.50;16.17;;;0.90;47.00;;;;;;20835;6822;119228;-81
2022/12/14 03:08:22;;;;;;;21.13;18.93;;;0.90;46.60;;;;;;20624;6822;294665;-81
2022/12/14 03:10:47;;;;;;;21.25;17.60;;;1.10;47.20;;;;;;20802;6822;118055;-82
2022/12/14 03:13:18;;;;;;;21.87;19.60;;;1.10;47.10;;;;;;20606;6822;277953;-81
2022/12/14 03:15:44;;;;;;;22.65;20.27;;;1.30;47.10;;;;;;20578;6822;338848;-81
2022/12/14 03:18:11;;;;;;;19.20;15.80;;;1.60;46.80;;;;;;20819;6822;117414;-81
2022/12/14 03:20:36;;;;;;;22.87;20.37;;;1.60;46.40;;;;;;20594;6822;309681;-81
2022/12/14 03:23:02;;;;;;;22.80;20.60;;;1.60;46.30;;;;;;20590;6823;309417;-82
2022/12/14 03:25:37;;;;;;;22.60;20.20;;;1.80;45.90;;;;;;20579;6823;307921;-81
2022/12/14 03:28:06;;;;;;;20.95;18.85;;;2.00;45.50;;;;;;20600;6823;338251;-81
2022/12/14 03:30:32;;;;;;;22.43;20.23;;;2.20;45.50;;;;;;20596;6823;278996;-80
2022/12/14 03:32:57;;;;;;;20.37;16.77;;;2.30;45.20;;;;;;20836;6823;117462;-81
2022/12/14 03:35:56;;;;;;;22.37;19.77;;;2.20;45.00;;;;;;20598;6823;306584;-81
2022/12/14 03:38:31;;;;;;;21.35;19.25;;;2.10;45.70;;;;;;20601;6823;278989;-80
2022/12/14 03:41:07;;;;;;;20.73;18.63;;;2.20;44.60;;;;;;20605;6823;335627;-80
2022/12/14 03:43:43;;;;;;;21.80;19.50;;;2.30;44.40;;;;;;20605;6823;306545;-84
2022/12/14 03:46:17;;;;;;;22.50;20.20;;;2.50;45.00;;;;;;20610;6823;336108;-81
2022/12/14 03:48:49;;;;;;;18.73;15.87;;;2.50;45.00;;;;;;20802;6823;117482;-82
2022/12/14 03:51:21;;;;;;;21.20;19.00;;;2.30;45.00;;;;;;20612;6823;306570;-82
2022/12/14 03:53:50;;;;;;;17.97;15.40;;;2.20;45.10;;;;;;20785;6823;117192;-84
2022/12/14 03:56:19;;;;;;;21.60;19.50;;;2.00;45.10;;;;;;20610;6823;310028;-81
2022/12/14 03:59:09;;;;;;;17.30;14.77;;;2.00;45.10;;;;;;20796;6823;117456;-83
2022/12/14 04:01:48;;;;;;;19.17;14.80;;;1.90;45.00;;;;;;20794;6823;117932;-82
2022/12/14 04:04:17;;;;;;;21.17;18.97;;;1.70;46.20;;;;;;20602;6823;307056;-82
2022/12/14 04:06:56;;;;;;;20.30;16.13;;;1.60;46.10;;;;;;20771;6823;117784;-82
2022/12/14 04:09:41;;;;;;;17.37;15.47;;;1.60;46.00;;;;;;20796;6823;117367;-82
2022/12/14 04:20:39;;;;;;;20.77;16.47;;;2.20;46.40;;;;;;20796;6822;117567;-76
2022/12/14 04:23:08;;;;;;;16.47;14.67;;;2.00;46.80;;;;;;20708;6822;117417;-79
2022/12/14 04:31:01;;;;;;;20.43;18.33;;;1.80;46.60;;;;;;19516;7181;294007;-78
2022/12/14 04:33:50;;;;;;;18.10;15.10;;;1.90;45.90;;;;;;20602;6845;120101;-80
2022/12/14 04:35:54;;;;;;;21.33;19.15;;;1.80;45.70;;;;;;20344;6845;278237;-79
2022/12/14 04:38:33;;;;;;;21.65;19.48;;;2.20;45.40;;;;;;20548;6845;308167;-81
2022/12/14 04:41:02;;;;;;;17.73;15.80;;;2.10;45.30;;;;;;20698;6845;117633;-81
2022/12/14 04:43:27;;;;;;;18.07;15.50;;;2.10;45.20;;;;;;20781;6845;116401;-81
2022/12/14 04:46:15;;;;;;;16.43;14.13;;;1.80;45.30;;;;;;20764;6845;117427;-81
2022/12/14 04:48:47;;;;;;;21.17;19.07;;;1.50;45.50;;;;;;19904;6823;307949;-81
2022/12/14 04:51:13;;;;;;;22.53;15.63;;;1.60;46.60;;;;;;20769;6823;117494;-81
2022/12/14 04:53:39;;;;;;;22.30;19.80;;;1.60;45.90;;;;;;20573;6823;339167;-79
2022/12/14 04:56:21;;;;;;;19.40;16.02;;;1.70;47.30;;;;;;20811;6823;118066;-79
2022/12/14 04:58:47;;;;;;;22.23;19.90;;;1.70;46.60;;;;;;20563;6823;309284;-79
2022/12/14 05:01:39;;;;;;;23.43;20.97;;;1.80;47.00;;;;;;20599;6823;307553;-80
2022/12/14 05:04:41;;;;;;;22.90;16.53;;;2.10;47.10;;;;;;20807;6823;119072;-79
2022/12/14 05:07:30;;;;;;;18.40;14.53;;;2.00;46.80;;;;;;20814;6823;117721;-79
2022/12/14 05:10:09;;;;;;;17.67;15.40;;;1.70;47.00;;;;;;20811;6823;117682;-79
2022/12/14 05:12:35;;;;;;;18.43;15.40;;;1.30;47.60;;;;;;20786;6823;117991;-79
2022/12/14 05:15:06;;;;;;;23.25;20.75;;;1.40;48.00;;;;;;20591;6823;306191;-84
2022/12/14 05:17:38;;;;;;;23.25;20.85;;;1.40;48.00;;;;;;20605;6823;322651;-80
2022/12/14 05:20:04;;;;;;;23.95;21.52;;;1.70;47.60;;;;;;20603;6823;306077;-80
2022/12/14 05:22:31;;;;;;;21.77;17.97;;;2.00;47.50;;;;;;20809;6823;117321;-80
2022/12/14 05:24:56;;;;;;;21.03;17.17;;;2.00;47.20;;;;;;20828;6823;120597;-77
2022/12/14 05:27:22;;;;;;;21.17;16.33;;;1.70;47.20;;;;;;20829;6820;117148;-79
2022/12/14 05:29:47;;;;;;;17.90;15.57;;;1.50;47.50;;;;;;20827;6822;117349;-79
2022/12/14 05:32:13;;;;;;;23.17;20.77;;;1.30;47.90;;;;;;20605;6822;307564;-79
2022/12/14 05:34:39;;;;;;;22.53;17.10;;;1.40;48.50;;;;;;20778;6822;117767;-79
2022/12/14 05:37:04;;;;;;;26.48;23.50;;;1.40;48.20;;;;;;20592;6822;278089;-79
2022/12/14 05:39:31;;;;;;;24.95;22.45;;;1.90;48.00;;;;;;20604;6822;277768;-77
2022/12/14 05:41:57;;;;;;;24.92;22.42;;;2.10;47.50;;;;;;20606;6822;277652;-78
2022/12/14 05:44:22;;;;;;;24.90;22.27;;;2.10;47.50;;;;;;20605;6822;307132;-79
2022/12/14 05:46:48;;;;;;;26.67;23.97;;;2.30;47.10;;;;;;20593;6823;306268;-76
2022/12/14 05:49:16;;;;;;;26.08;23.58;;;2.60;46.50;;;;;;20608;6823;336972;-76
2022/12/14 05:51:42;;;;;;;21.57;19.37;;;2.30;46.40;;;;;;20810;6823;118015;-78
2022/12/14 05:54:08;;;;;;;25.55;22.95;;;2.40;46.50;;;;;;20605;6823;310216;-80
2022/12/14 05:56:33;;;;;;;25.05;22.55;;;2.30;46.90;;;;;;20592;6823;307985;-77
2022/12/14 05:58:59;;;;;;;23.03;18.63;;;2.40;46.70;;;;;;20824;6823;118902;-80
2022/12/14 06:01:24;;;;;;;24.95;22.35;;;2.30;46.60;;;;;;20611;6823;280106;-77
2022/12/14 06:03:52;;;;;;;26.37;23.77;;;2.20;47.10;;;;;;20608;6823;302140;-79
2022/12/14 06:06:17;;;;;;;22.67;19.23;;;2.40;47.00;;;;;;20846;6823;117581;-81
2022/12/14 06:08:42;;;;;;;23.73;18.83;;;2.30;47.50;;;;;;20820;6823;117416;-77
2022/12/14 06:11:15;;;;;;;27.15;24.35;;;2.00;47.10;;;;;;20593;6823;308444;-78
2022/12/14 06:13:40;;;;;;;26.47;23.87;;;2.00;47.70;;;;;;20592;6823;297105;-79
2022/12/14 06:16:09;;;;;;;25.37;22.77;;;2.20;47.60;;;;;;20827;6823;117853;-80
2022/12/14 06:18:35;;;;;;;27.23;24.52;;;2.20;47.40;;;;;;20573;6823;307849;-81
2022/12/14 06:21:00;;;;;;;20.33;18.17;;;2.20;47.80;;;;;;20830;6823;117318;-83
2022/12/14 06:23:26;;;;;;;24.90;22.33;;;2.10;47.60;;;;;;20656;6823;278040;-84
2022/12/14 06:25:53;;;;;;;25.80;21.33;;;2.20;48.00;;;;;;20895;6823;116399;-85
2022/12/14 06:28:18;;;;;;;22.70;20.07;;;2.10;47.90;;;;;;20827;6823;117030;-87
2022/12/14 06:30:43;;;;;;;27.45;24.40;;;2.00;48.40;;;;;;20602;6823;291679;-84
2022/12/14 06:33:09;;;;;;;22.93;18.40;;;2.10;48.50;;;;;;20835;6823;117146;-84
2022/12/14 06:35:35;;;;;;;22.60;19.17;;;2.10;48.30;;;;;;20839;6823;122739;-88
2022/12/14 06:38:00;;;;;;;23.73;18.77;;;1.90;48.20;;;;;;20845;6821;117751;-87
2022/12/14 06:40:26;;;;;;;26.33;23.53;;;1.70;48.40;;;;;;20627;6822;277747;-86
2022/12/14 06:42:52;;;;;;;23.23;20.77;;;1.80;48.60;;;;;;20823;6822;118594;-78
2022/12/14 06:45:17;;;;;;;33.60;26.67;;;1.90;48.40;;;;;;20828;6822;119593;-82
2022/12/14 06:47:43;;;;;;;44.70;34.57;;;1.70;48.40;;;;;;20829;6822;117969;-86
2022/12/14 06:50:09;;;;;;;24.23;19.77;;;1.60;48.70;;;;;;20871;6822;117225;-85
2022/12/14 06:52:36;;;;;;;22.50;18.37;;;1.40;48.90;;;;;;20829;6822;118605;-78
2022/12/14 06:55:02;;;;;;;21.73;17.87;;;1.30;48.80;;;;;;20829;6822;118170;-77
2022/12/14 06:57:28;;;;;;;27.53;20.47;;;1.20;49.30;;;;;;20824;6822;114041;-80
2022/12/14 06:59:53;;;;;;;21.67;17.37;;;1.20;49.30;;;;;;20837;6823;117250;-81
2022/12/14 07:02:19;;;;;;;26.87;24.17;;;1.10;49.30;;;;;;20632;6823;277976;-79
2022/12/14 07:04:46;;;;;;;48.03;42.17;;;1.40;49.80;;;;;;20598;6823;309401;-78
2022/12/14 07:07:11;;;;;;;34.37;30.67;;;1.80;49.40;;;;;;20618;6823;299672;-80
2022/12/14 07:09:38;;;;;;;29.70;26.50;;;2.40;48.50;;;;;;20645;6823;281799;-80
2022/12/14 07:12:03;;;;;;;24.90;21.10;;;2.40;48.50;;;;;;20869;6823;118167;-80
2022/12/14 07:14:29;;;;;;;26.17;21.83;;;2.40;48.10;;;;;;20843;6823;117641;-80
2022/12/14 07:16:55;;;;;;;26.27;23.67;;;2.20;48.40;;;;;;20610;6823;277715;-80
2022/12/14 07:19:21;;;;;;;27.90;25.10;;;2.10;49.00;;;;;;20623;6823;295669;-79
2022/12/14 07:21:48;;;;;;;27.52;24.50;;;2.40;48.10;;;;;;20829;6823;118130;-76
2022/12/14 07:24:13;;;;;;;22.37;18.30;;;2.40;47.90;;;;;;20817;6823;120484;-76
2022/12/14 07:26:39;;;;;;;25.23;22.63;;;2.10;48.00;;;;;;20585;6823;307167;-77
2022/12/14 07:29:05;;;;;;;22.05;19.35;;;2.10;47.90;;;;;;20821;6823;120547;-77
2022/12/14 07:31:30;;;;;;;27.27;23.75;;;2.10;47.90;;;;;;20595;6823;310214;-76
2022/12/14 07:33:57;;;;;;;24.43;20.10;;;2.20;47.90;;;;;;20734;6823;120350;-77
2022/12/14 07:36:22;;;;;;;21.50;18.43;;;2.10;47.70;;;;;;20817;6823;121083;-77
2022/12/14 07:38:48;;;;;;;27.35;24.40;;;2.00;48.10;;;;;;20548;6823;307504;-77
2022/12/14 07:41:16;;;;;;;41.70;35.40;;;2.00;48.30;;;;;;20633;6823;303397;-78
2022/12/14 07:43:42;;;;;;;42.07;31.23;;;2.30;48.00;;;;;;20821;6823;117853;-78
2022/12/14 07:46:07;;;;;;;30.05;26.85;;;2.30;47.60;;;;;;20613;6823;309108;-78
2022/12/14 07:48:33;;;;;;;99.30;57.60;;;2.40;47.90;;;;;;20785;6823;119400;-78
2022/12/14 07:51:08;;;;;;;22.63;19.17;;;2.30;47.40;;;;;;20824;6821;117620;-78
2022/12/14 07:53:34;;;;;;;24.80;22.23;;;2.10;47.60;;;;;;20581;6822;277702;-78
2022/12/14 07:56:03;;;;;;;21.55;18.80;;;2.10;47.70;;;;;;20820;6822;117175;-77
2022/12/14 07:58:29;;;;;;;22.10;17.40;;;1.90;48.30;;;;;;20794;6822;118146;-76
2022/12/14 08:00:56;;;;;;;29.37;26.20;;;1.90;47.90;;;;;;20579;6822;307165;-76
2022/12/14 08:03:23;;;;;;;35.30;30.97;;;2.00;48.50;;;;;;20597;6822;307350;-76
2022/12/14 08:05:49;;;;;;;34.23;27.83;;;2.30;48.30;;;;;;20808;6822;117812;-76
2022/12/14 08:08:15;;;;;;;35.03;31.00;;;2.30;47.90;;;;;;20617;6822;277440;-77
2022/12/14 08:10:41;;;;;;;45.40;32.60;;;2.40;48.00;;;;;;20806;6823;119013;-77
2022/12/14 08:13:06;;;;;;;22.27;18.45;;;2.30;47.90;;;;;;20834;6823;123327;-77
2022/12/14 08:15:33;;;;;;;20.20;17.43;;;2.00;48.40;;;;;;20827;6823;117200;-77
2022/12/14 08:17:58;;;;;;;20.77;17.67;;;2.00;48.40;;;;;;20811;6823;118719;-77
2022/12/14 08:20:24;;;;;;;27.08;24.33;;;1.80;48.50;;;;;;20616;6823;277579;-77
2022/12/14 08:22:49;;;;;;;28.13;25.40;;;1.90;49.10;;;;;;20593;6823;307823;-77
2022/12/14 08:25:15;;;;;;;31.65;25.80;;;2.20;49.00;;;;;;20817;6823;118070;-77
2022/12/14 08:27:41;;;;;;;30.93;27.63;;;2.20;48.70;;;;;;20608;6823;318156;-77
2022/12/14 08:30:07;;;;;;;30.45;27.35;;;2.20;49.40;;;;;;20603;6823;280237;-77
2022/12/14 08:32:33;;;;;;;24.90;21.03;;;2.50;49.80;;;;;;20802;6823;147598;-79
2022/12/14 08:35:01;;;;;;;26.67;20.83;;;2.40;49.50;;;;;;20816;6823;117295;-78
2022/12/14 08:37:26;;;;;;;20.77;17.67;;;2.20;49.70;;;;;;20832;6823;117365;-80
2022/12/14 08:39:52;;;;;;;24.57;19.47;;;2.00;50.00;;;;;;20811;6823;117816;-78
2022/12/14 08:42:18;;;;;;;30.08;26.87;;;2.00;51.30;;;;;;20604;6823;308365;-79
2022/12/14 08:44:43;;;;;;;25.20;21.77;;;1.90;51.20;;;;;;20810;6823;117520;-78
2022/12/14 08:47:09;;;;;;;31.23;27.83;;;2.00;51.00;;;;;;20602;6823;313790;-78
2022/12/14 08:49:35;;;;;;;28.17;22.02;;;2.10;51.40;;;;;;20829;6823;117360;-80
2022/12/14 08:52:00;;;;;;;31.33;28.03;;;2.20;51.20;;;;;;20609;6823;284584;-80
2022/12/14 08:54:27;;;;;;;26.40;22.40;;;2.20;51.40;;;;;;20814;6823;117728;-80
2022/12/14 08:56:53;;;;;;;26.93;22.47;;;2.00;51.50;;;;;;20805;6823;121026;-81
2022/12/14 08:59:19;;;;;;;25.37;20.27;;;2.00;51.50;;;;;;20823;6823;117951;-80
2022/12/14 09:01:44;;;;;;;31.43;28.13;;;1.90;51.70;;;;;;20613;6821;278214;-78
2022/12/14 09:04:10;;;;;;;27.53;22.60;;;2.00;52.50;;;;;;20836;6822;119806;-79
2022/12/14 09:06:35;;;;;;;28.27;21.97;;;2.10;52.20;;;;;;20807;6822;127498;-79
2022/12/14 09:09:01;;;;;;;37.93;31.17;;;2.00;52.20;;;;;;20607;6822;279302;-79
2022/12/14 09:11:28;;;;;;;36.00;26.53;;;2.10;52.40;;;;;;20821;6822;118764;-79
2022/12/14 09:13:53;;;;;;;30.90;23.73;;;2.10;52.00;;;;;;20822;6822;117561;-79
2022/12/14 09:16:18;;;;;;;33.08;29.37;;;2.00;52.10;;;;;;20606;6822;305964;-78
2022/12/14 09:18:44;;;;;;;30.92;23.85;;;2.10;52.70;;;;;;20786;6822;119191;-80
2022/12/14 09:21:10;;;;;;;32.65;29.10;;;2.20;52.40;;;;;;20602;6823;299193;-79
2022/12/14 09:23:35;;;;;;;27.53;23.17;;;2.30;52.20;;;;;;20822;6823;119219;-78
2022/12/14 09:26:01;;;;;;;33.60;29.50;;;2.30;52.50;;;;;;20593;6823;309154;-80
2022/12/14 09:28:26;;;;;;;30.03;24.97;;;2.30;52.10;;;;;;20815;6823;118013;-80
2022/12/14 09:30:56;;;;;;;25.33;21.93;;;2.20;52.10;;;;;;20781;6823;118043;-79
2022/12/14 09:33:23;;;;;;;35.03;31.27;;;2.20;52.00;;;;;;20602;6823;295947;-79
2022/12/14 09:35:49;;;;;;;27.13;22.07;;;2.30;52.50;;;;;;20819;6823;119627;-78
2022/12/14 09:38:15;;;;;;;37.10;31.60;;;2.30;52.10;;;;;;20613;6823;306565;-78
2022/12/14 09:40:41;;;;;;;37.20;33.20;;;2.70;52.50;;;;;;20588;6823;310545;-79
2022/12/14 09:43:08;;;;;;;35.33;26.20;;;2.70;52.50;;;;;;20809;6823;117660;-79
2022/12/14 09:45:33;;;;;;;27.37;22.70;;;2.70;52.10;;;;;;20805;6823;117305;-79
2022/12/14 09:48:19;;;;;;;36.67;31.40;;;2.40;52.20;;;;;;20605;6823;310301;-79
2022/12/14 09:50:47;;;;;;;35.60;30.27;;;2.50;52.90;;;;;;20591;6823;277448;-81
2022/12/14 09:53:13;;;;;;;31.50;24.60;;;2.80;52.70;;;;;;20821;6823;119107;-79
2022/12/14 09:55:45;;;;;;;30.35;24.10;;;2.80;52.40;;;;;;20826;6823;117195;-79
2022/12/14 09:58:31;;;;;;;27.87;21.40;;;2.60;52.50;;;;;;20797;6823;117213;-79
2022/12/14 10:01:05;;;;;;;30.97;22.53;;;2.50;52.80;;;;;;20778;6823;118673;-81
2022/12/14 10:03:53;;;;;;;28.23;21.83;;;2.30;52.90;;;;;;20827;6823;117173;-79
2022/12/14 10:06:26;;;;;;;41.67;36.00;;;2.30;53.80;;;;;;20592;6823;332671;-79
2022/12/14 10:09:15;;;;;;;30.73;25.43;;;2.30;54.50;;;;;;20805;6823;117910;-79
2022/12/14 10:11:54;;;;;;;38.25;33.08;;;2.30;53.40;;;;;;20608;6823;278215;-80
2022/12/14 10:14:19;;;;;;;31.60;25.37;;;2.50;54.00;;;;;;20028;6822;119329;-78
2022/12/14 10:16:59;;;;;;;33.13;29.10;;;2.60;54.10;;;;;;20196;6822;307408;-79
2022/12/14 10:19:51;;;;;;;32.33;24.80;;;2.60;54.10;;;;;;20807;6822;120090;-82
2022/12/14 10:22:17;;;;;;;40.47;33.58;;;2.50;53.60;;;;;;20604;6822;306947;-80
2022/12/14 10:24:55;;;;;;;38.57;34.37;;;2.60;54.00;;;;;;20587;6822;307396;-83
2022/12/14 10:27:22;;;;;;;37.20;33.28;;;2.90;53.70;;;;;;20539;6822;277795;-78
2022/12/14 10:30:01;;;;;;;40.60;35.40;;;3.10;53.60;;;;;;20592;6822;310066;-77
2022/12/14 10:32:35;;;;;;;38.87;34.70;;;3.30;53.20;;;;;;20597;6823;310653;-78
2022/12/14 10:35:13;;;;;;;34.00;26.30;;;3.40;52.80;;;;;;20805;6823;117912;-76
2022/12/14 10:37:43;;;;;;;41.90;35.33;;;3.20;52.70;;;;;;20526;6823;309832;-78
2022/12/14 10:40:09;;;;;;;33.23;26.90;;;3.20;53.30;;;;;;20808;6823;118956;-79
2022/12/14 10:43:14;;;;;;;37.63;32.83;;;3.00;53.20;;;;;;20586;6823;294548;-76
2022/12/14 10:45:53;;;;;;;28.50;23.93;;;3.00;53.40;;;;;;20827;6823;118470;-76
2022/12/14 10:48:49;;;;;;;40.77;34.33;;;2.80;53.90;;;;;;20608;6823;279669;-80
2022/12/14 10:51:21;;;;;;;33.10;26.90;;;2.80;54.00;;;;;;20824;6823;117997;-76
2022/12/14 10:53:56;;;;;;;38.20;34.15;;;2.70;53.80;;;;;;20593;6823;311901;-79
2022/12/14 10:56:22;;;;;;;33.40;26.67;;;2.80;54.30;;;;;;20818;6823;119553;-78
2022/12/14 10:59:17;;;;;;;40.08;33.67;;;2.70;54.00;;;;;;20577;6823;306957;-79
2022/12/14 11:01:44;;;;;;;34.53;26.37;;;2.80;54.30;;;;;;20811;6823;117670;-75
2022/12/14 11:04:12;;;;;;;37.27;33.13;;;2.70;54.00;;;;;;20610;6823;307068;-75
2022/12/14 11:06:38;;;;;;;35.00;26.97;;;2.80;54.30;;;;;;20753;6823;117499;-75
2022/12/14 11:09:04;;;;;;;30.03;23.90;;;2.70;54.00;;;;;;20825;6823;117610;-79
2022/12/14 11:11:30;;;;;;;29.63;24.70;;;2.60;54.30;;;;;;20777;6823;117719;-78
2022/12/14 11:14:09;;;;;;;29.20;22.80;;;2.40;54.60;;;;;;20867;6823;118182;-79
2022/12/14 11:16:35;;;;;;;40.20;35.43;;;2.40;55.40;;;;;;20585;6823;306715;-77
2022/12/14 11:19:01;;;;;;;37.17;33.28;;;2.40;55.40;;;;;;20595;6823;308153;-77
2022/12/14 11:21:36;;;;;;;30.67;25.50;;;2.80;55.00;;;;;;20821;6823;117737;-77
2022/12/14 11:24:02;;;;;;;36.78;32.78;;;2.80;54.50;;;;;;20606;6821;306680;-79
2022/12/14 11:26:31;;;;;;;30.70;25.70;;;3.00;55.30;;;;;;20824;6822;118972;-76
2022/12/14 11:28:57;;;;;;;35.87;31.97;;;3.00;55.10;;;;;;20603;6822;276500;-78
2022/12/14 11:31:36;;;;;;;34.50;30.90;;;3.00;54.90;;;;;;20605;6822;306629;-78
2022/12/14 11:34:01;;;;;;;35.10;31.33;;;3.30;54.50;;;;;;20581;6822;310314;-75
2022/12/14 11:36:27;;;;;;;31.20;25.23;;;3.60;53.90;;;;;;20818;6822;117672;-75
2022/12/14 11:38:56;;;;;;;26.92;23.45;;;3.40;53.60;;;;;;20759;6822;120994;-75
2022/12/14 11:41:21;;;;;;;28.90;23.83;;;3.20;54.00;;;;;;20815;6822;117695;-75
2022/12/14 11:43:47;;;;;;;27.13;21.37;;;2.90;54.30;;;;;;20818;6822;117193;-74
2022/12/14 11:46:12;;;;;;;34.53;30.88;;;2.80;54.70;;;;;;20555;6823;277549;-75
2022/12/14 11:48:39;;;;;;;29.35;24.35;;;2.90;54.70;;;;;;20783;6823;117358;-76
2022/12/14 11:51:12;;;;;;;33.80;23.27;;;2.90;54.90;;;;;;20790;6823;118532;-75
2022/12/14 11:53:37;;;;;;;25.10;21.77;;;2.80;55.00;;;;;;20803;6823;117396;-78
2022/12/14 11:56:03;;;;;;;41.60;33.67;;;2.60;55.10;;;;;;20603;6823;279965;-74
2022/12/14 11:58:31;;;;;;;31.77;26.13;;;2.80;55.80;;;;;;20804;6823;123138;-74
2022/12/14 12:00:57;;;;;;;31.40;25.20;;;2.80;55.10;;;;;;20625;6823;118390;-75
2022/12/14 12:03:25;;;;;;;40.83;34.67;;;2.70;55.10;;;;;;20591;6823;306705;-74
2022/12/14 12:05:52;;;;;;;40.73;26.90;;;2.80;54.70;;;;;;20802;6823;118541;-76
2022/12/14 12:08:24;;;;;;;40.63;33.63;;;2.80;55.20;;;;;;20564;6823;309770;-75
2022/12/14 12:10:49;;;;;;;32.73;26.70;;;2.90;55.40;;;;;;20774;6823;118040;-74
2022/12/14 12:13:18;;;;;;;37.90;33.53;;;2.90;55.00;;;;;;20600;6823;309725;-74
2022/12/14 12:15:47;;;;;;;33.97;26.30;;;3.00;55.40;;;;;;20502;6823;117271;-74
2022/12/14 12:18:13;;;;;;;39.72;34.75;;;3.00;55.10;;;;;;20581;6823;307056;-76
2022/12/14 12:20:40;;;;;;;46.58;38.90;;;3.20;55.60;;;;;;20575;6823;307458;-76
2022/12/14 12:23:06;;;;;;;44.27;38.33;;;3.40;55.30;;;;;;20585;6823;277837;-75
2022/12/14 12:25:32;;;;;;;47.37;40.23;;;3.70;54.90;;;;;;20603;6823;277406;-74
2022/12/14 12:28:10;;;;;;;43.07;38.37;;;3.80;54.50;;;;;;20602;6823;305952;-75
2022/12/14 12:30:37;;;;;;;38.27;30.40;;;3.90;53.80;;;;;;20796;6823;118023;-74
2022/12/14 12:33:16;;;;;;;46.07;38.57;;;3.70;53.80;;;;;;20610;6823;277798;-75
2022/12/14 12:35:47;;;;;;;40.93;35.37;;;3.60;54.40;;;;;;20602;6821;278144;-76
2022/12/14 12:38:16;;;;;;;30.40;27.40;;;3.80;54.30;;;;;;20598;6822;309035;-74
2022/12/14 12:41:05;;;;;;;32.53;26.30;;;4.00;54.00;;;;;;20780;6822;119401;-74
2022/12/14 12:43:33;;;;;;;36.23;32.57;;;3.90;53.80;;;;;;20587;6822;294765;-73
2022/12/14 12:46:15;;;;;;;29.93;25.93;;;3.90;54.10;;;;;;20789;6822;117241;-76
2022/12/14 12:48:47;;;;;;;27.67;24.57;;;3.80;54.00;;;;;;20719;6822;118372;-74
2022/12/14 12:51:19;;;;;;;34.07;26.10;;;3.50;54.30;;;;;;20798;6822;118024;-74
2022/12/14 12:53:44;;;;;;;27.80;24.23;;;3.30;54.70;;;;;;20810;6822;117226;-77